Portada
METAR-TAF:

METAR-TAF

Aeroports :

Key West, Florida, Estats Units d'Amèrica

latitud: 24-33-13N, longitud: 081-45-13W, altitud: 1 m

Observació

L'informe es va fer fa 55 minuts, a les 05:53 UTC
Vent 6 kt del Oest
Temperatura 29°C
Humitat 79%
Pressió 1015 hPa
Visibilitat: 16.1 km
Cel clar

METAR: KEYW 160553Z AUTO 26006KT 10SM CLR 29/25 A2997 RMK AO2 SLP147 T02890250 10300 20289 58003

Hora: 02:48 (06:48 UTC)

Pronòstic

L'informe es va fer fa 19 minuts, a les 06:29 UTC
Pronòstic vàlid del 16 a les 06 UTC al 17 a les 06 UTC
Vent 6 kt del Oest
Visibilitat: 10 km
Escasses núvols a una alçada de 2500 ft
A partir de les 16 a les 1500 UTC
Vent 8 kt del Oest
Visibilitat: 10 km
Núvols disperses a una alçada de 2500 ft
xàfecs en les proximitats
A partir de les 16 a les 2200 UTC
Vent 8 kt del Oest/Nord-Oest
Visibilitat: 10 km
Escasses núvols a una alçada de 2500 ft

TAF: KEYW 160629Z 1606/1706 27006KT P6SM FEW025 FM161500 28008KT P6SM VCSH SCT025 FM162200 29008KT P6SM FEW025

Observacions i pronòstics meteorològics de més de 4000 aeroports (METAR i TAF).

Les estacions disponibles són els punts grocs i vermells al mapa.

Posi el ratolí al punt desitjat per veure el nom de l'estació.

Feu clic per veure les observacions i els pronòstics meteorològics.

Per canviar el mapa: feu clic els botons verds amb una creu de color negre per apropar; al botó verd amb un guió per allunyar la imatge; o en les fletxes verdes per a mapes adjacents.


METAR-TAF: